Flight Track Log - Related Links

Times and Time Zones

All times are in EDT time to prevent confusion due to time zone crossing. See the C-GGPH flight status page for this flight to view local times or setup timezone preferences in your user account.


Time Position Orientation Groundspeed Altitude Reporting Facility
EDT Latitude Longitude Course Direction KTS MPH feet Rate Location/Type
Tue 05:36:04 PM 27.0667 -82.4333 90° East 75 86 600  Level Tampa TRACON
Tue 05:36:34 PM 27.0667 -82.4167 42° Northeast 71 82 900 600 Climbing Tampa TRACON
Tue 05:37:34 PM 27.0833 -82.4000 90° East 78 90 1,500 550 Climbing Tampa TRACON
Tue 05:38:34 PM 27.0833 -82.3667 167° South 77 89 2,000 242 Climbing Tampa TRACON
Tue 06:09:49 PM 26.0511 -82.0986 175° South 145 167 9,300 226 Climbing Miami Center
Tue 06:10:49 PM 26.0097 -82.0944 172° South 145 167 9,300 -50 Level Miami Center
Tue 06:11:49 PM 25.9703 -82.0881 165° South 145 167 9,200 -100 Descending Miami Center
Tue 06:12:49 PM 25.9269 -82.0747 172° South 144 166 9,100 -50 Descending Miami Center
Tue 06:13:49 PM 25.8875 -82.0683 166° South 149 171 9,100  Level Miami Center
Tue 06:14:49 PM 25.8481 -82.0575 169° South 149 171 9,100  Level Miami Center
Tue 06:15:49 PM 25.8086 -82.0489 175° South 144 166 9,100 50 Level Miami Center
Tue 06:16:49 PM 25.7672 -82.0447 165° South 144 166 9,200 50 Climbing Miami Center
Tue 06:17:49 PM 25.7300 -82.0339 169° South 144 166 9,200 50 Level Miami Center
Tue 06:18:49 PM 25.6906 -82.0253 150° Southeast 144 166 9,300 -50 Climbing Miami Center
Tue 06:19:49 PM 25.6558 -82.0031 139° Southeast 144 166 9,100 -150 Descending Miami Center
Tue 06:20:49 PM 25.6256 -81.9742 164° South 144 166 9,000 -200 Descending Miami Center
Tue 06:21:49 PM 25.5842 -81.9608 167° South 144 166 8,700 -350 Descending Miami Center
Tue 06:22:49 PM 25.5408 -81.9500 165° South 155 178 8,300 -450 Descending Miami Center
Tue 06:23:49 PM 25.4953 -81.9364 164° South 161 185 7,800 -400 Descending Miami Center
Tue 06:24:49 PM 25.4519 -81.9231 167° South 161 185 7,500 -350 Descending Miami Center
Tue 06:25:49 PM 25.4083 -81.9122 167° South 161 185 7,100 -350 Descending Miami Center
Tue 06:26:49 PM 25.3650 -81.9011 169° South 161 185 6,800 -250 Descending Miami Center
Tue 06:27:49 PM 25.3236 -81.8925 170° South 161 185 6,600 -300 Descending Miami Center
Tue 06:28:49 PM 25.2800 -81.8839 175° South 161 185 6,200 -400 Descending Miami Center
Tue 06:29:49 PM 25.2383 -81.8797 170° South 161 185 5,800 -400 Descending Miami Center
Tue 06:30:49 PM 25.1947 -81.8711 172° South 161 185 5,400 -300 Descending Miami Center
Tue 06:31:49 PM 25.1553 -81.8650 175° South 156 180 5,200 -200 Descending Miami Center
Tue 06:32:49 PM 25.1117 -81.8608 172° South 156 180 5,000 -300 Descending Miami Center
Tue 06:33:49 PM 25.0700 -81.8544 175° South 156 180 4,600 -450 Descending Miami Center
Tue 06:34:49 PM 25.0283 -81.8506 175° South 156 180 4,100 -350 Descending Miami Center
Tue 06:35:49 PM 24.9869 -81.8467 172° South 156 180 3,900 -200 Descending Miami Center
Tue 06:36:49 PM 24.9472 -81.8406 174° South 156 180 3,700 -250 Descending Miami Center
Tue 06:37:49 PM 24.9119 -81.8367 175° South 146 168 3,400 -250 Descending Miami Center
Tue 06:38:49 PM 24.8744 -81.8328 166° South 140 161 3,200 -200 Descending Miami Center
Tue 06:46:15 PM 24.6198 -81.7640 176° South  Level FlightAware Approximate
Tue 06:47:15 PM 24.5845 -81.7615 176° South  Level Estimated
Tue 06:48:15 PM 24.5492 -81.7591 85° East  Level Estimated
Tue 06:49:15 PM 24.5500 -81.7500 305° West  Level FlightAware Approximate
Tue 06:50:15 PM 24.5703 -81.7818 125° Southeast  Level Estimated
Tue 06:51:15 PM 24.5500 -81.7500 125° Southeast  Level FlightAware Approximate

Login

Don't have an account? Register now (free) for customized features, flight alerts, and more!